Time;durP1;ratioP1;P1;durP2;ratioP2;P2;SDS_P1;SDS_P2;PMS_P1;PMS_P2;Temp;Humidity;BMP_temperature;BMP_pressure;BME280_temperature;BME280_humidity;BME280_pressure;Samples;Min_cycle;Max_cycle;Signal;HPM_P1;HPM_P2
2022/09/18 00:01:13;;;;;;;;;;;9.70;99.90;;;;;;12475157;28;19932;-83
2022/09/18 00:07:15;;;;;;;;;;;9.80;99.90;;;;;;12475853;28;20628;-83
2022/09/18 00:13:16;;;;;;;;;;;9.80;99.90;;;;;;12475375;28;19983;-82
2022/09/18 00:19:18;;;;;;;;;;;9.80;99.90;;;;;;12476854;28;19929;-82
2022/09/18 00:25:20;;;;;;;;;;;9.70;99.90;;;;;;12483941;28;19925;-82
2022/09/18 00:31:28;;;;;;;;;;;9.70;99.90;;;;;;12487612;28;19932;-82
2022/09/18 00:37:30;;;;;;;;;;;9.60;99.90;;;;;;12476197;28;19925;-82
2022/09/18 00:43:32;;;;;;;;;;;9.70;99.90;;;;;;12471996;28;19925;-83
2022/09/18 00:49:36;;;;;;;;;;;9.60;99.90;;;;;;12471429;28;19937;-83
2022/09/18 00:55:39;;;;;;;;;;;9.70;99.90;;;;;;12463334;28;19930;-82
2022/09/18 01:01:40;;;;;;;;;;;9.80;99.90;;;;;;12469443;28;19926;-82
2022/09/18 01:07:56;;;;;;;;;;;9.80;99.90;;;;;;12468281;28;19933;-82
2022/09/18 01:14:02;;;;;;;;;;;9.90;99.90;;;;;;12506081;28;19920;-83
2022/09/18 01:20:07;;;;;;;;;;;9.90;99.90;;;;;;12531366;28;19972;-83
2022/09/18 01:26:09;;;;;;;;;;;9.80;99.90;;;;;;12542015;28;19933;-82
2022/09/18 01:32:24;;;;;;;;;;;9.80;99.90;;;;;;12548322;28;19913;-82
2022/09/18 01:38:34;;;;;;;;;;;9.80;99.90;;;;;;12537520;28;19925;-84
2022/09/18 01:44:39;;;;;;;;;;;9.70;99.90;;;;;;12523348;28;19924;-82
2022/09/18 01:50:44;;;;;;;;;;;9.60;99.90;;;;;;12474429;28;20308;-82
2022/09/18 01:56:49;;;;;;;;;;;9.60;99.90;;;;;;12492467;28;19932;-82
2022/09/18 02:02:53;;;;;;;;;;;9.60;99.90;;;;;;12491025;28;19932;-83
2022/09/18 02:08:56;;;;;;;;;;;9.60;99.90;;;;;;12498293;28;19979;-82
2022/09/18 02:15:00;;;;;;;;;;;9.60;99.90;;;;;;12480311;28;19977;-83
2022/09/18 02:21:05;;;;;;;;;;;9.60;99.90;;;;;;12488490;28;19924;-83
2022/09/18 02:27:08;;;;;;;;;;;9.50;99.90;;;;;;12485446;28;20094;-82
2022/09/18 02:33:30;;;;;;;;;;;9.50;99.90;;;;;;12487837;28;19948;-81
2022/09/18 02:39:37;;;;;;;;;;;9.50;99.90;;;;;;12467095;28;19932;-83
2022/09/18 02:45:56;;;;;;;;;;;9.60;99.90;;;;;;12480480;28;19948;-83
2022/09/18 02:52:01;;;;;;;;;;;9.40;99.90;;;;;;12493713;28;19929;-83
2022/09/18 02:58:10;;;;;;;;;;;9.50;99.90;;;;;;12481199;28;20353;-83
2022/09/18 03:04:14;;;;;;;;;;;9.40;99.90;;;;;;12480726;28;19933;-83
2022/09/18 03:10:15;;;;;;;;;;;9.40;99.90;;;;;;12482531;28;19933;-82
2022/09/18 03:16:17;;;;;;;;;;;9.40;99.90;;;;;;12469912;28;19932;-82
2022/09/18 03:22:19;;;;;;;;;;;9.40;99.90;;;;;;12490741;28;20304;-83
2022/09/18 03:28:20;;;;;;;;;;;9.40;99.90;;;;;;12481146;28;19932;-83
2022/09/18 03:34:22;;;;;;;;;;;9.40;99.90;;;;;;12476274;28;20090;-82
2022/09/18 03:40:24;;;;;;;;;;;9.50;99.90;;;;;;12465920;28;19949;-82
2022/09/18 03:46:25;;;;;;;;;;;9.40;99.90;;;;;;12482675;28;20278;-83
2022/09/18 03:52:28;;;;;;;;;;;9.50;99.90;;;;;;12476504;28;20343;-83
2022/09/18 03:58:30;;;;;;;;;;;9.50;99.90;;;;;;12473451;28;19979;-82
2022/09/18 04:04:32;;;;;;;;;;;9.50;99.90;;;;;;12474715;28;19930;-82
2022/09/18 04:10:33;;;;;;;;;;;9.50;99.90;;;;;;12474369;28;19925;-82
2022/09/18 04:16:35;;;;;;;;;;;9.60;99.90;;;;;;12473263;28;19930;-82
2022/09/18 04:22:37;;;;;;;;;;;9.70;99.90;;;;;;12479414;28;19970;-83
2022/09/18 04:28:39;;;;;;;;;;;9.70;99.90;;;;;;12466306;28;19948;-83
2022/09/18 04:34:41;;;;;;;;;;;9.70;99.90;;;;;;12479526;28;19925;-83
2022/09/18 04:40:43;;;;;;;;;;;9.80;99.90;;;;;;12477713;28;19929;-83
2022/09/18 04:46:44;;;;;;;;;;;9.80;99.90;;;;;;12465404;28;19932;-82
2022/09/18 04:52:46;;;;;;;;;;;9.70;99.90;;;;;;12472455;28;20419;-83
2022/09/18 04:58:48;;;;;;;;;;;9.70;99.90;;;;;;12462374;28;19932;-83
2022/09/18 05:04:49;;;;;;;;;;;9.70;99.90;;;;;;12464741;28;19925;-84
2022/09/18 05:10:51;;;;;;;;;;;9.70;99.90;;;;;;12475047;28;19926;-83
2022/09/18 05:16:53;;;;;;;;;;;9.70;99.90;;;;;;12452990;28;19930;-83
2022/09/18 05:22:55;;;;;;;;;;;9.60;99.90;;;;;;12475374;28;19935;-83
2022/09/18 05:28:57;;;;;;;;;;;9.70;99.90;;;;;;12467441;28;19932;-83
2022/09/18 05:34:58;;;;;;;;;;;9.80;99.90;;;;;;12473221;28;19933;-83
2022/09/18 05:41:03;;;;;;;;;;;9.90;99.90;;;;;;12455557;28;19930;-84
2022/09/18 05:47:04;;;;;;;;;;;9.90;99.90;;;;;;12470395;28;19936;-83
2022/09/18 05:53:07;;;;;;;;;;;10.00;99.90;;;;;;12469698;28;20633;-84
2022/09/18 05:59:09;;;;;;;;;;;9.90;99.90;;;;;;12465214;28;20384;-83
2022/09/18 06:05:10;;;;;;;;;;;10.00;99.90;;;;;;12452659;28;19932;-83
2022/09/18 06:11:12;;;;;;;;;;;10.00;99.90;;;;;;12464932;28;20408;-83
2022/09/18 06:17:14;;;;;;;;;;;10.00;99.90;;;;;;12481646;28;20296;-83
2022/09/18 06:23:15;;;;;;;;;;;10.10;99.90;;;;;;12471301;28;19925;-83
2022/09/18 06:29:17;;;;;;;;;;;10.20;99.90;;;;;;12476408;28;19926;-83
2022/09/18 06:35:19;;;;;;;;;;;10.20;99.90;;;;;;12473870;28;19952;-83
2022/09/18 06:41:22;;;;;;;;;;;10.30;99.90;;;;;;12478629;28;19948;-83
2022/09/18 06:47:23;;;;;;;;;;;10.30;99.90;;;;;;12472910;28;19948;-84
2022/09/18 06:53:25;;;;;;;;;;;10.40;99.90;;;;;;12481861;28;19933;-84
2022/09/18 06:59:27;;;;;;;;;;;10.40;99.90;;;;;;12467705;28;19933;-84
2022/09/18 07:05:30;;;;;;;;;;;10.50;99.90;;;;;;12475176;28;19929;-84
2022/09/18 07:11:32;;;;;;;;;;;10.60;99.90;;;;;;12466226;28;20300;-84
2022/09/18 07:17:34;;;;;;;;;;;10.60;99.90;;;;;;12465023;28;19930;-83
2022/09/18 07:23:36;;;;;;;;;;;10.70;99.90;;;;;;12472927;28;21642;-82
2022/09/18 07:29:38;;;;;;;;;;;10.70;99.90;;;;;;12465896;28;20377;-83
2022/09/18 07:35:40;;;;;;;;;;;10.70;99.90;;;;;;12464052;28;19925;-84
2022/09/18 07:41:44;;;;;;;;;;;10.80;99.90;;;;;;12481937;28;19969;-83
2022/09/18 07:47:46;;;;;;;;;;;10.80;99.90;;;;;;12473663;28;20020;-84
2022/09/18 07:53:48;;;;;;;;;;;10.90;99.90;;;;;;12471214;28;19926;-83
2022/09/18 07:59:50;;;;;;;;;;;11.00;99.90;;;;;;12485060;28;19925;-83
2022/09/18 08:05:51;;;;;;;;;;;11.10;99.90;;;;;;12481302;28;19932;-83
2022/09/18 08:11:53;;;;;;;;;;;11.00;99.90;;;;;;12477966;28;19940;-83
2022/09/18 08:17:55;;;;;;;;;;;11.00;99.90;;;;;;12464479;28;19929;-83
2022/09/18 08:23:56;;;;;;;;;;;10.90;99.90;;;;;;12464432;28;19925;-83
2022/09/18 08:29:58;;;;;;;;;;;10.90;99.90;;;;;;12467432;28;19936;-84
2022/09/18 08:36:00;;;;;;;;;;;10.80;99.90;;;;;;12476832;28;19929;-83
2022/09/18 08:42:04;;;;;;;;;;;10.70;99.90;;;;;;12463300;28;19925;-83
2022/09/18 08:48:13;;;;;;;;;;;10.60;99.90;;;;;;12468324;28;19926;-83
2022/09/18 08:54:19;;;;;;;;;;;10.70;99.90;;;;;;12471825;28;20385;-84
2022/09/18 09:00:29;;;;;;;;;;;10.70;99.90;;;;;;12478834;28;19940;-83
2022/09/18 09:06:49;;;;;;;;;;;10.80;99.90;;;;;;12485184;28;19926;-84
2022/09/18 09:13:04;;;;;;;;;;;10.80;99.90;;;;;;12483714;28;19929;-83
2022/09/18 09:19:21;;;;;;;;;;;10.70;99.90;;;;;;12467594;28;19925;-83
2022/09/18 09:25:29;;;;;;;;;;;10.70;99.90;;;;;;12462918;28;19925;-83
2022/09/18 09:31:35;;;;;;;;;;;10.60;99.90;;;;;;12465207;28;19932;-84
2022/09/18 09:37:39;;;;;;;;;;;10.60;99.90;;;;;;12479296;28;20032;-83
2022/09/18 09:44:02;;;;;;;;;;;10.60;99.90;;;;;;12464184;28;19936;-84
2022/09/18 09:50:29;;;;;;;;;;;10.60;99.90;;;;;;12473940;28;19988;-83
2022/09/18 09:56:37;;;;;;;;;;;10.60;99.90;;;;;;12483716;28;19932;-84
2022/09/18 10:02:49;;;;;;;;;;;10.50;99.90;;;;;;12483996;28;19929;-84
2022/09/18 10:08:55;;;;;;;;;;;10.50;99.90;;;;;;12492211;28;19925;-84
2022/09/18 10:15:18;;;;;;;;;;;10.50;99.90;;;;;;12480662;28;19929;-84
2022/09/18 10:21:25;;;;;;;;;;;10.60;99.90;;;;;;12481934;28;19933;-84
2022/09/18 10:27:27;;;;;;;;;;;10.70;99.90;;;;;;12478340;28;19926;-84
2022/09/18 10:33:34;;;;;;;;;;;10.70;99.90;;;;;;12479915;28;20368;-83
2022/09/18 10:39:46;;;;;;;;;;;10.70;99.90;;;;;;12476959;28;19929;-84
2022/09/18 10:45:53;;;;;;;;;;;10.60;99.90;;;;;;12471612;28;19932;-84
2022/09/18 10:52:13;;;;;;;;;;;10.70;99.90;;;;;;12480481;28;19934;-83
2022/09/18 10:58:15;;;;;;;;;;;10.70;99.90;;;;;;12472154;28;19932;-83
2022/09/18 11:04:18;;;;;;;;;;;10.80;99.90;;;;;;12497019;28;19925;-84
2022/09/18 11:10:41;;;;;;;;;;;10.70;99.90;;;;;;12500127;28;20373;-84
2022/09/18 11:24:05;;;;;;;;;;;10.50;99.90;;;;;;12464915;28;19987;-84
2022/09/18 11:30:15;;;;;;;;;;;9.50;99.90;;;;;;12468960;28;19929;-86
2022/09/18 11:36:28;;;;;;;;;;;9.10;99.90;;;;;;12474902;28;19925;-85
2022/09/18 11:42:31;;;;;;;;;;;9.10;99.90;;;;;;12458951;28;19929;-85
2022/09/18 11:48:39;;;;;;;;;;;9.40;99.90;;;;;;12470722;28;19932;-84
2022/09/18 11:54:50;;;;;;;;;;;9.60;99.90;;;;;;12470122;28;19925;-85
2022/09/18 12:00:55;;;;;;;;;;;9.80;99.90;;;;;;12459795;28;19941;-84
2022/09/18 12:07:32;;;;;;;;;;;10.00;99.90;;;;;;12473938;28;20293;-84
2022/09/18 12:13:53;;;;;;;;;;;10.20;99.90;;;;;;12368216;28;19933;-85
2022/09/18 12:20:06;;;;;;;;;;;10.10;99.90;;;;;;12468659;28;19925;-84
2022/09/18 12:26:18;;;;;;;;;;;10.10;99.90;;;;;;12465446;28;19925;-84
2022/09/18 12:32:26;;;;;;;;;;;10.20;99.90;;;;;;12461053;28;19929;-85
2022/09/18 12:38:43;;;;;;;;;;;10.20;99.90;;;;;;12469022;28;19925;-84
2022/09/18 12:44:57;;;;;;;;;;;10.20;99.90;;;;;;12470412;28;20297;-85
2022/09/18 12:51:05;;;;;;;;;;;10.30;99.90;;;;;;12462753;28;19933;-85
2022/09/18 12:57:12;;;;;;;;;;;10.40;99.90;;;;;;12472577;28;19929;-85
2022/09/18 13:03:20;;;;;;;;;;;10.40;99.90;;;;;;12464611;28;19925;-84
2022/09/18 13:09:26;;;;;;;;;;;10.50;99.90;;;;;;12466294;28;19932;-85
2022/09/18 13:15:46;;;;;;;;;;;10.50;99.90;;;;;;12467206;28;19925;-84
2022/09/18 13:21:50;;;;;;;;;;;10.60;99.90;;;;;;12466944;28;19944;-84
2022/09/18 13:27:52;;;;;;;;;;;10.60;99.90;;;;;;12481793;28;19925;-84
2022/09/18 13:33:57;;;;;;;;;;;10.60;99.90;;;;;;12490107;28;19928;-84
2022/09/18 13:40:18;;;;;;;;;;;10.70;99.90;;;;;;12471430;28;19929;-84
2022/09/18 13:46:38;;;;;;;;;;;10.80;99.90;;;;;;12465483;28;19961;-83
2022/09/18 13:52:42;;;;;;;;;;;10.90;99.90;;;;;;12461707;28;20316;-84
2022/09/18 13:58:54;;;;;;;;;;;11.00;99.90;;;;;;12461579;28;19925;-83
2022/09/18 14:05:15;;;;;;;;;;;11.20;99.90;;;;;;12478415;28;19980;-84
2022/09/18 14:11:21;;;;;;;;;;;11.40;99.90;;;;;;12492013;28;19925;-84
2022/09/18 14:17:24;;;;;;;;;;;11.40;99.90;;;;;;12461910;28;19932;-84
2022/09/18 14:23:34;;;;;;;;;;;11.30;99.90;;;;;;12463487;28;19926;-84
2022/09/18 14:29:36;;;;;;;;;;;11.20;99.90;;;;;;12476055;28;19932;-84
2022/09/18 14:35:41;;;;;;;;;;;11.20;99.90;;;;;;12466444;28;19933;-85
2022/09/18 14:41:46;;;;;;;;;;;11.20;99.90;;;;;;12466672;28;19929;-84
2022/09/18 14:47:49;;;;;;;;;;;11.20;99.90;;;;;;12471529;28;19933;-84
2022/09/18 14:53:55;;;;;;;;;;;11.20;99.90;;;;;;12455749;28;19929;-84
2022/09/18 14:59:58;;;;;;;;;;;11.20;99.90;;;;;;12474553;28;19926;-84
2022/09/18 15:06:14;;;;;;;;;;;11.20;99.90;;;;;;12480035;28;19925;-84
2022/09/18 15:12:18;;;;;;;;;;;11.30;99.90;;;;;;12476226;28;19925;-84
2022/09/18 15:18:22;;;;;;;;;;;11.30;99.90;;;;;;12479384;28;19925;-84
2022/09/18 15:24:24;;;;;;;;;;;11.20;99.90;;;;;;12478090;28;20297;-84
2022/09/18 15:30:26;;;;;;;;;;;11.30;99.90;;;;;;12467337;28;19932;-85
2022/09/18 15:36:33;;;;;;;;;;;11.30;99.90;;;;;;12469971;28;20282;-84
2022/09/18 15:42:37;;;;;;;;;;;11.20;99.90;;;;;;12451014;28;19929;-84
2022/09/18 15:48:42;;;;;;;;;;;11.20;99.90;;;;;;12469472;28;19930;-85
2022/09/18 15:55:01;;;;;;;;;;;11.30;99.90;;;;;;12463175;28;20288;-84
2022/09/18 16:01:04;;;;;;;;;;;11.30;99.90;;;;;;12469007;28;19929;-84
2022/09/18 16:07:20;;;;;;;;;;;11.30;99.90;;;;;;12462635;28;19933;-84
2022/09/18 16:13:24;;;;;;;;;;;11.30;99.90;;;;;;12466887;28;19959;-85
2022/09/18 16:19:26;;;;;;;;;;;11.20;99.90;;;;;;12471699;28;19936;-84
2022/09/18 16:25:28;;;;;;;;;;;11.10;99.90;;;;;;12472807;28;20369;-85
2022/09/18 16:31:31;;;;;;;;;;;10.70;99.90;;;;;;12471314;28;19925;-85
2022/09/18 16:37:40;;;;;;;;;;;10.90;99.90;;;;;;12459765;28;20040;-84
2022/09/18 16:43:43;;;;;;;;;;;10.70;99.90;;;;;;12470036;28;20274;-84
2022/09/18 16:49:46;;;;;;;;;;;10.80;99.90;;;;;;12471993;28;19932;-85
2022/09/18 16:55:50;;;;;;;;;;;10.80;99.90;;;;;;12463609;28;20282;-84
2022/09/18 17:01:52;;;;;;;;;;;10.70;99.90;;;;;;12463419;28;19929;-84
2022/09/18 17:08:05;;;;;;;;;;;10.80;99.90;;;;;;12469935;28;19934;-84
2022/09/18 17:14:06;;;;;;;;;;;10.80;99.90;;;;;;12473457;28;20404;-84
2022/09/18 17:20:08;;;;;;;;;;;10.80;99.90;;;;;;12456714;28;19925;-83
2022/09/18 17:26:11;;;;;;;;;;;10.80;99.90;;;;;;12470949;28;19933;-82
2022/09/18 17:32:12;;;;;;;;;;;10.80;99.90;;;;;;12458507;28;20278;-85
2022/09/18 17:38:14;;;;;;;;;;;10.80;99.90;;;;;;12466232;28;19929;-85
2022/09/18 17:44:16;;;;;;;;;;;10.70;99.90;;;;;;12462938;28;19959;-84
2022/09/18 17:50:19;;;;;;;;;;;10.70;99.90;;;;;;12458350;28;19953;-84
2022/09/18 17:56:28;;;;;;;;;;;10.70;99.90;;;;;;12466332;28;20145;-84
2022/09/18 18:02:30;;;;;;;;;;;10.60;99.90;;;;;;12463133;28;19932;-84
2022/09/18 18:08:32;;;;;;;;;;;10.60;99.90;;;;;;12471570;28;19929;-84
2022/09/18 18:14:34;;;;;;;;;;;10.60;99.90;;;;;;12483666;28;19929;-83
2022/09/18 18:20:36;;;;;;;;;;;10.50;99.90;;;;;;12465491;28;19925;-84
2022/09/18 18:26:38;;;;;;;;;;;10.50;99.90;;;;;;12478408;28;19929;-83
2022/09/18 18:32:40;;;;;;;;;;;10.50;99.90;;;;;;12473615;28;19947;-83
2022/09/18 18:38:43;;;;;;;;;;;10.40;99.90;;;;;;12467859;28;19933;-84
2022/09/18 18:44:44;;;;;;;;;;;10.40;99.90;;;;;;12478805;28;19937;-83
2022/09/18 18:50:46;;;;;;;;;;;10.30;99.90;;;;;;12457198;28;19936;-82
2022/09/18 18:56:48;;;;;;;;;;;10.30;99.90;;;;;;12467504;28;20289;-83
2022/09/18 19:02:50;;;;;;;;;;;10.30;99.90;;;;;;12467793;28;19930;-83
2022/09/18 19:08:55;;;;;;;;;;;10.20;99.90;;;;;;12475693;28;19929;-82
2022/09/18 19:14:57;;;;;;;;;;;10.20;99.90;;;;;;12468503;28;19925;-83
2022/09/18 19:20:59;;;;;;;;;;;10.10;99.90;;;;;;12469934;28;19925;-83
2022/09/18 19:27:00;;;;;;;;;;;10.00;99.90;;;;;;12466812;28;19933;-83
2022/09/18 19:33:02;;;;;;;;;;;10.00;99.90;;;;;;12477277;28;19929;-83
2022/09/18 19:39:05;;;;;;;;;;;10.00;99.90;;;;;;12464327;28;19972;-83
2022/09/18 19:45:09;;;;;;;;;;;9.90;99.90;;;;;;12465186;28;20700;-83
2022/09/18 19:51:10;;;;;;;;;;;9.90;99.90;;;;;;12460773;28;19926;-83
2022/09/18 19:57:12;;;;;;;;;;;9.90;99.90;;;;;;12459884;28;19933;-83
2022/09/18 20:03:14;;;;;;;;;;;9.80;99.90;;;;;;12456748;28;19929;-83
2022/09/18 20:09:16;;;;;;;;;;;9.80;99.90;;;;;;12464777;28;20300;-83
2022/09/18 20:15:17;;;;;;;;;;;9.70;99.90;;;;;;12461681;28;19925;-83
2022/09/18 20:21:19;;;;;;;;;;;9.70;99.90;;;;;;12461836;28;19924;-81
2022/09/18 20:27:22;;;;;;;;;;;9.70;99.90;;;;;;12460428;28;19940;-82
2022/09/18 20:33:23;;;;;;;;;;;9.80;99.90;;;;;;12465814;28;19929;-82
2022/09/18 20:39:25;;;;;;;;;;;9.80;99.90;;;;;;12466224;28;19943;-83
2022/09/18 20:45:27;;;;;;;;;;;9.60;99.90;;;;;;12463430;28;19926;-83
2022/09/18 20:51:31;;;;;;;;;;;9.60;99.90;;;;;;12464125;28;19929;-83
2022/09/18 20:57:34;;;;;;;;;;;9.50;99.90;;;;;;12464230;28;19941;-83
2022/09/18 21:03:36;;;;;;;;;;;9.50;99.90;;;;;;12463629;28;20288;-83
2022/09/18 21:09:37;;;;;;;;;;;9.60;99.90;;;;;;12480566;28;19932;-83
2022/09/18 21:15:45;;;;;;;;;;;9.60;99.90;;;;;;12468140;28;19929;-82
2022/09/18 21:21:47;;;;;;;;;;;9.60;99.90;;;;;;12458922;28;20438;-83
2022/09/18 21:27:52;;;;;;;;;;;9.70;99.90;;;;;;12468013;28;19933;-82
2022/09/18 21:33:54;;;;;;;;;;;9.60;99.90;;;;;;12465658;28;19926;-82
2022/09/18 21:39:56;;;;;;;;;;;9.70;99.90;;;;;;12468489;28;19949;-82
2022/09/18 21:46:04;;;;;;;;;;;9.80;99.90;;;;;;12474891;28;20020;-82
2022/09/18 21:52:06;;;;;;;;;;;9.90;99.90;;;;;;12470790;28;19929;-83
2022/09/18 21:58:08;;;;;;;;;;;9.90;99.90;;;;;;12480424;28;20042;-83
2022/09/18 22:04:10;;;;;;;;;;;10.00;99.90;;;;;;12463409;28;20360;-83
2022/09/18 22:10:15;;;;;;;;;;;9.90;99.90;;;;;;12479436;28;19933;-83
2022/09/18 22:16:16;;;;;;;;;;;10.00;99.90;;;;;;12474121;28;19929;-83
2022/09/18 22:22:18;;;;;;;;;;;10.20;99.90;;;;;;12466688;28;19929;-83
2022/09/18 22:28:20;;;;;;;;;;;10.00;99.90;;;;;;12465531;28;20289;-82
2022/09/18 22:34:23;;;;;;;;;;;10.10;99.90;;;;;;12470935;28;19929;-83
2022/09/18 22:40:25;;;;;;;;;;;10.00;99.90;;;;;;12472608;28;19926;-83
2022/09/18 22:46:26;;;;;;;;;;;10.30;99.90;;;;;;12469823;28;20277;-83
2022/09/18 22:52:28;;;;;;;;;;;10.20;99.90;;;;;;12467902;28;21718;-82
2022/09/18 22:58:30;;;;;;;;;;;9.90;99.90;;;;;;12472824;28;19925;-83
2022/09/18 23:04:32;;;;;;;;;;;9.90;99.90;;;;;;12480452;28;19932;-83
2022/09/18 23:10:34;;;;;;;;;;;9.80;99.90;;;;;;12481597;28;20388;-83
2022/09/18 23:16:36;;;;;;;;;;;9.80;99.90;;;;;;12471154;28;20389;-83
2022/09/18 23:22:39;;;;;;;;;;;9.80;99.90;;;;;;12468370;28;20037;-83
2022/09/18 23:28:41;;;;;;;;;;;10.00;99.90;;;;;;12472140;28;19929;-82
2022/09/18 23:34:43;;;;;;;;;;;9.90;99.90;;;;;;12474839;28;19936;-83
2022/09/18 23:40:44;;;;;;;;;;;9.80;99.90;;;;;;12460965;28;19925;-83
2022/09/18 23:46:46;;;;;;;;;;;9.80;99.90;;;;;;12459808;28;19937;-82
2022/09/18 23:52:48;;;;;;;;;;;9.80;99.90;;;;;;12465726;28;19940;-83
2022/09/18 23:58:53;;;;;;;;;;;9.90;99.90;;;;;;12463517;28;19926;-82
